EKLV weather

Lemvig Airport
Lemvig, Central Jutland, Denmark

Public forecast

Using degrees Celsius for public forecast. Weather courtesy of forecast.io.

Closest aviation weather report (METAR) to Lemvig Airport

Closest report is Karup Airport, 29.7 nm (55.0 km) ESE. Retrieved 2019/10/23 08:20 UTC (28 minutes ago):

EKKA 230820Z AUTO 19007KT 9999 BKN036/// 12/08 Q1018 NOSIG

Closest aviation forecast (TAF) to Lemvig Airport

Closest forecast is Karup Airport, 29.7 nm (55.0 km) ESE. Retrieved 2019/10/23 09:31 UTC (0 seconds ago):

TAF EKKA 230828Z 2309/2409 20008KT 9999 BKN040 BECMG 2319/2322 14008KT TEMPO 2320/2323 7000 TEMPO 2323/2409 2000 BR BKN004